Time;durP1;ratioP1;P1;durP2;ratioP2;P2;SDS_P1;SDS_P2;PMS_P1;PMS_P2;Temp;Humidity;BMP_temperature;BMP_pressure;BME280_temperature;BME280_humidity;BME280_pressure;Samples;Min_cycle;Max_cycle;Signal;HPM_P1;HPM_P2
2022/09/05 00:00:18;;;;;;;4.75;3.20;;;;;;;15.95;64.96;101553.53;5102535;27;20043;-80
2022/09/05 00:02:58;;;;;;;8.32;3.60;;;;;;;15.89;65.09;101548.81;5127301;27;20035;-81
2022/09/05 00:06:08;;;;;;;5.65;3.25;;;;;;;15.92;64.78;101548.44;5129642;27;20043;-80
2022/09/05 00:08:49;;;;;;;5.68;3.40;;;;;;;15.95;64.72;101551.66;5105991;27;20032;-80
2022/09/05 00:11:27;;;;;;;6.57;3.50;;;;;;;15.96;64.70;101555.22;5113379;27;20505;-79
2022/09/05 00:14:04;;;;;;;7.28;3.22;;;;;;;16.01;64.90;101547.41;5111422;27;20031;-78
2022/09/05 00:16:53;;;;;;;5.40;3.13;;;;;;;15.94;64.48;101533.69;5128016;27;20035;-78
2022/09/05 00:19:42;;;;;;;4.78;3.05;;;;;;;16.05;64.63;101546.03;5111903;27;20038;-76
2022/09/05 00:22:29;;;;;;;4.30;3.00;;;;;;;16.03;64.54;101546.19;5108731;27;20035;-77
2022/09/05 00:25:12;;;;;;;4.75;3.63;;;;;;;16.07;64.43;101535.03;5118692;27;20092;-77
2022/09/05 00:27:58;;;;;;;6.03;3.20;;;;;;;16.06;64.36;101539.59;5105443;27;20463;-78
2022/09/05 00:30:23;;;;;;;8.80;3.20;;;;;;;16.12;64.46;101540.75;5042217;28;20045;-79
2022/09/05 00:33:10;;;;;;;5.05;3.13;;;;;;;16.21;64.38;101540.53;5082271;27;20563;-78
2022/09/05 00:35:57;;;;;;;7.30;3.50;;;;;;;16.11;63.92;101531.78;5119350;27;20269;-78
2022/09/05 00:38:25;;;;;;;6.38;3.03;;;;;;;16.25;63.45;101533.75;5126572;27;20023;-78
2022/09/05 00:40:55;;;;;;;5.15;3.15;;;;;;;16.17;63.67;101539.19;5123924;27;20088;-78
2022/09/05 00:43:32;;;;;;;5.40;2.90;;;;;;;16.19;63.79;101539.03;5123285;27;20058;-78
2022/09/05 00:46:17;;;;;;;5.68;3.30;;;;;;;16.23;63.15;101537.66;5093617;27;20034;-78
2022/09/05 00:49:12;;;;;;;4.75;2.92;;;;;;;16.17;63.61;101541.06;5109558;27;20047;-77
2022/09/05 00:51:52;;;;;;;4.72;3.22;;;;;;;16.14;63.35;101527.88;5128598;27;20035;-79
2022/09/05 00:54:43;;;;;;;5.82;2.90;;;;;;;16.19;63.54;101534.44;5109262;27;20550;-79
2022/09/05 00:57:43;;;;;;;7.57;3.10;;;;;;;16.17;63.53;101531.06;5120683;27;20084;-77
2022/09/05 01:00:31;;;;;;;5.45;2.78;;;;;;;16.17;62.99;101528.34;5105221;27;20111;-77
2022/09/05 01:03:27;;;;;;;3.78;2.95;;;;;;;16.17;63.20;101535.66;5122437;27;20035;-77
2022/09/05 01:06:25;;;;;;;9.45;3.33;;;;;;;16.19;63.08;101541.75;5118985;27;20499;-79
2022/09/05 01:09:05;;;;;;;4.75;3.03;;;;;;;16.15;62.92;101543.13;5125514;27;20088;-78
2022/09/05 01:11:58;;;;;;;5.88;3.00;;;;;;;16.19;62.52;101529.00;5121973;27;20031;-78
2022/09/05 01:14:36;;;;;;;4.35;3.03;;;;;;;16.23;62.63;101538.50;5116040;27;20031;-78
2022/09/05 01:17:30;;;;;;;3.88;2.97;;;;;;;15.98;63.15;101516.06;5127129;27;20470;-78
2022/09/05 01:20:16;;;;;;;5.53;3.40;;;;;;;16.19;62.79;101539.88;5111242;28;20150;-77
2022/09/05 01:23:07;;;;;;;4.28;2.83;;;;;;;16.23;63.10;101540.38;5125800;27;20031;-77
2022/09/05 01:25:45;;;;;;;4.63;3.00;;;;;;;16.19;63.06;101539.03;5091484;28;20113;-78
2022/09/05 01:28:23;;;;;;;4.28;3.00;;;;;;;16.23;63.19;101530.38;5125610;27;20530;-80
2022/09/05 01:31:15;;;;;;;5.25;2.92;;;;;;;16.25;62.40;101527.47;5109234;27;20035;-79
2022/09/05 01:33:54;;;;;;;4.57;3.00;;;;;;;16.25;62.76;101527.47;5119922;27;20027;-78
2022/09/05 01:36:48;;;;;;;5.72;3.00;;;;;;;16.22;62.71;101544.97;5092534;28;20599;-79
2022/09/05 01:39:32;;;;;;;4.30;3.10;;;;;;;16.23;62.72;101535.78;5098024;28;20520;-79
2022/09/05 01:42:28;;;;;;;6.77;2.90;;;;;;;16.32;61.94;101531.19;5121256;28;20451;-78
2022/09/05 01:45:03;;;;;;;4.95;2.90;;;;;;;16.36;61.94;101528.94;5127315;28;20285;-78
2022/09/05 01:47:48;;;;;;;5.50;2.78;;;;;;;16.32;61.78;101514.91;5100283;28;20031;-79
2022/09/05 01:50:37;;;;;;;5.95;3.22;;;;;;;16.43;61.91;101524.47;5078236;28;20498;-78
2022/09/05 01:53:26;;;;;;;5.43;3.00;;;;;;;16.43;62.00;101530.75;5129082;28;20360;-79
2022/09/05 01:56:07;;;;;;;5.53;3.30;;;;;;;16.52;61.68;101522.56;5125801;28;20036;-79
2022/09/05 01:58:57;;;;;;;6.25;2.90;;;;;;;16.51;61.69;101524.44;5119046;28;20558;-80
2022/09/05 02:01:34;;;;;;;5.93;2.78;;;;;;;16.50;61.59;101517.31;5128510;28;20125;-79
2022/09/05 02:04:25;;;;;;;3.95;2.63;;;;;;;16.48;61.42;101516.66;5126033;28;20106;-79
2022/09/05 02:07:05;;;;;;;6.15;3.08;;;;;;;16.47;61.49;101514.97;5127870;28;20038;-79
2022/09/05 02:09:40;;;;;;;5.70;2.95;;;;;;;16.46;61.58;101514.13;5127799;28;20049;-78
2022/09/05 02:12:13;;;;;;;5.33;3.20;;;;;;;16.31;61.80;101482.50;5103764;28;20142;-78
2022/09/05 02:14:42;;;;;;;7.93;2.90;;;;;;;16.41;61.94;101518.38;5105037;28;20107;-78
2022/09/05 02:17:32;;;;;;;5.15;2.90;;;;;;;16.37;61.79;101519.78;5127148;28;20135;-78
2022/09/05 02:20:20;;;;;;;5.50;3.30;;;;;;;16.31;61.92;101512.34;5128197;28;20041;-79
2022/09/05 02:23:09;;;;;;;6.13;3.15;;;;;;;16.28;61.96;101515.44;5124162;28;20062;-80
2022/09/05 02:25:45;;;;;;;6.30;3.00;;;;;;;16.14;62.47;101498.88;5082632;28;20046;-79
2022/09/05 02:28:38;;;;;;;6.43;3.38;;;;;;;16.09;62.55;101509.41;5088549;28;20035;-80
2022/09/05 02:31:12;;;;;;;3.92;2.95;;;;;;;16.10;62.86;101508.38;5125132;28;20081;-78
2022/09/05 02:33:44;;;;;;;5.82;3.10;;;;;;;16.09;62.63;101514.00;5093881;28;20091;-80
2022/09/05 02:36:39;;;;;;;4.22;2.88;;;;;;;16.08;62.80;101518.56;5097158;27;20043;-80
2022/09/05 02:39:19;;;;;;;5.68;3.45;;;;;;;15.98;63.03;101513.34;5114586;27;20100;-78
2022/09/05 02:42:13;;;;;;;8.02;3.25;;;;;;;15.88;63.24;101514.59;5124646;27;20414;-78
2022/09/05 02:45:14;;;;;;;7.00;3.25;;;;;;;15.88;63.40;101520.84;5117177;27;20472;-78
2022/09/05 02:48:17;;;;;;;5.35;3.20;;;;;;;15.86;63.23;101513.91;5100116;27;20058;-78
2022/09/05 02:51:13;;;;;;;6.07;3.03;;;;;;;15.78;63.50;101496.66;5119590;27;20183;-79
2022/09/05 02:53:46;;;;;;;4.28;2.80;;;;;;;15.88;63.23;101509.16;5105339;27;20032;-79
2022/09/05 02:56:26;;;;;;;7.82;2.92;;;;;;;15.91;63.50;101514.22;5080856;27;20043;-79
2022/09/05 02:59:12;;;;;;;4.15;3.05;;;;;;;15.69;63.46;101494.97;5106722;27;20077;-78
2022/09/05 03:01:44;;;;;;;5.22;3.22;;;;;;;15.89;63.44;101513.56;5110062;28;20032;-79
2022/09/05 03:04:31;;;;;;;4.28;3.00;;;;;;;15.90;64.05;101509.84;5107307;28;20085;-79
2022/09/05 03:07:20;;;;;;;4.85;3.00;;;;;;;15.87;63.42;101505.59;5108930;28;20039;-80
2022/09/05 03:09:58;;;;;;;6.65;3.10;;;;;;;15.91;63.28;101512.34;5099788;28;20035;-80
2022/09/05 03:13:00;;;;;;;6.15;3.20;;;;;;;15.92;63.26;101507.78;5101188;28;20043;-80
2022/09/05 03:15:29;;;;;;;7.35;3.42;;;;;;;15.84;63.23;101503.22;5100750;28;20031;-79
2022/09/05 03:18:32;;;;;;;5.97;3.13;;;;;;;15.87;63.33;101508.28;5099551;28;20056;-79
2022/09/05 03:21:29;;;;;;;4.95;2.90;;;;;;;15.82;63.22;101505.28;5101672;28;20086;-80
2022/09/05 03:24:28;;;;;;;6.07;3.25;;;;;;;15.78;63.24;101520.19;5048470;28;20067;-79
2022/09/05 03:27:03;;;;;;;6.97;2.90;;;;;;;15.79;63.18;101516.47;5101004;28;20138;-80
2022/09/05 03:29:53;;;;;;;5.10;3.10;;;;;;;15.64;63.11;101494.63;5103115;28;20051;-80
2022/09/05 03:32:33;;;;;;;7.65;3.05;;;;;;;15.80;63.19;101521.72;5105686;28;20035;-80
2022/09/05 03:35:17;;;;;;;5.47;3.00;;;;;;;15.79;63.29;101519.19;5111142;28;20028;-80
2022/09/05 03:38:09;;;;;;;8.55;3.10;;;;;;;15.75;63.21;101521.38;5107905;28;20480;-79
2022/09/05 03:41:03;;;;;;;5.47;2.92;;;;;;;15.83;62.90;101534.09;5112206;28;20069;-79
2022/09/05 03:43:48;;;;;;;4.07;3.00;;;;;;;15.80;63.06;101540.72;5124150;27;20043;-80
2022/09/05 03:46:32;;;;;;;7.47;3.30;;;;;;;15.82;63.10;101544.06;5108720;28;20042;-79
2022/09/05 03:49:25;;;;;;;6.43;3.05;;;;;;;15.86;62.88;101541.88;5108661;28;20062;-79
2022/09/05 03:52:29;;;;;;;5.25;3.00;;;;;;;15.85;62.79;101539.31;5108416;28;20102;-79
2022/09/05 03:55:20;;;;;;;6.75;3.28;;;;;;;15.90;62.19;101542.38;5098562;28;20028;-80
2022/09/05 03:57:54;;;;;;;6.38;3.10;;;;;;;15.91;62.25;101541.34;5105570;27;20529;-79
2022/09/05 04:00:27;;;;;;;6.50;3.20;;;;;;;15.77;62.20;101519.34;5129234;27;20448;-80
2022/09/05 04:03:17;;;;;;;6.22;2.90;;;;;;;15.99;61.99;101539.47;5107355;27;20475;-80
2022/09/05 04:05:49;;;;;;;6.00;2.80;;;;;;;15.90;61.81;101528.81;5122873;27;20031;-80
2022/09/05 04:08:26;;;;;;;6.32;2.95;;;;;;;15.91;61.45;101525.91;5107295;27;20251;-80
2022/09/05 04:10:58;;;;;;;6.53;2.88;;;;;;;16.04;61.21;101541.66;5111669;27;20034;-79
2022/09/05 04:13:34;;;;;;;7.80;3.10;;;;;;;16.15;61.12;101553.97;5104646;27;20058;-79
2022/09/05 04:16:02;;;;;;;5.47;3.17;;;;;;;16.15;61.25;101554.81;5090123;27;20540;-81
2022/09/05 04:18:54;;;;;;;5.72;3.00;;;;;;;16.23;60.56;101571.06;5123007;27;20027;-82
2022/09/05 04:21:25;;;;;;;4.70;3.10;;;;;;;16.06;60.48;101539.59;5113074;27;20023;-82
2022/09/05 04:24:12;;;;;;;5.30;2.92;;;;;;;16.21;60.10;101545.13;5090061;27;20467;-80
2022/09/05 04:26:47;;;;;;;6.35;2.70;;;;;;;16.28;59.81;101564.28;5095273;27;20036;-80
2022/09/05 04:29:34;;;;;;;;;;;;;;;16.33;60.01;101561.88;5112157;27;20107;-79
2022/09/05 04:32:57;;;;;;;10.70;3.10;;;;;;;16.32;60.16;101566.44;5137091;27;20367;-79
2022/09/05 04:36:12;;;;;;;6.10;3.20;;;;;;;16.30;60.68;101556.81;5028880;28;20583;-78
2022/09/05 04:38:40;;;;;;;7.03;3.10;;;;;;;16.19;60.91;101558.88;5029866;28;20041;-80
2022/09/05 04:41:31;;;;;;;5.63;3.15;;;;;;;16.32;60.69;101562.88;5027522;28;20060;-79
2022/09/05 04:44:25;;;;;;;5.30;3.17;;;;;;;16.24;60.36;101551.03;5010724;28;20041;-81
2022/09/05 04:47:10;;;;;;;6.53;3.10;;;;;;;16.38;60.24;101564.88;5027064;28;20044;-80
2022/09/05 04:50:16;;;;;;;7.40;2.97;;;;;;;16.43;59.73;101567.91;5029611;28;20774;-80
2022/09/05 04:54:18;;;;;;;10.57;3.17;;;;;;;16.50;59.40;101565.34;5080237;27;20066;-80
2022/09/05 04:57:22;;;;;;;8.02;2.88;;;;;;;16.54;59.12;101564.81;5025955;28;20049;-81
2022/09/05 04:59:50;;;;;;;5.13;2.78;;;;;;;16.65;58.28;101574.44;5038956;28;20049;-82
2022/09/05 05:02:53;;;;;;;7.80;2.80;;;;;;;16.68;57.84;101576.78;5033988;28;20034;-80
2022/09/05 05:05:54;;;;;;;5.82;3.00;;;;;;;16.79;57.28;101579.13;5030880;28;20091;-81
2022/09/05 05:08:57;;;;;;;5.10;2.72;;;;;;;16.85;57.17;101581.09;5003943;28;20046;-79
2022/09/05 05:11:47;;;;;;;5.13;3.20;;;;;;;16.81;56.37;101570.75;5070117;28;20064;-79
2022/09/05 05:14:51;;;;;;;6.32;2.90;;;;;;;17.15;55.75;101588.53;5099944;28;20442;-80
2022/09/05 05:17:57;;;;;;;4.32;2.40;;;;;;;17.27;54.91;101576.22;5108292;28;20476;-80
2022/09/05 05:20:51;;;;;;;5.55;2.80;;;;;;;17.61;54.44;101567.56;5089837;28;20024;-79
2022/09/05 05:23:20;;;;;;;5.35;2.78;;;;;;;17.92;53.29;101570.16;5091045;28;20044;-79
2022/09/05 05:25:49;;;;;;;7.80;3.00;;;;;;;18.32;52.35;101565.25;5107083;28;20428;-82
2022/09/05 05:28:43;;;;;;;4.95;2.50;;;;;;;18.68;50.74;101566.28;5102079;28;20126;-81
2022/09/05 05:31:21;;;;;;;4.25;2.60;;;;;;;18.83;50.42;101544.50;5103295;28;20050;-80
2022/09/05 05:34:12;;;;;;;3.75;2.33;;;;;;;19.08;48.98;101537.63;5132074;27;20502;-82
2022/09/05 05:36:46;;;;;;;6.25;2.60;;;;;;;19.53;48.05;101567.34;5106491;28;20056;-80
2022/09/05 05:39:40;;;;;;;5.55;2.40;;;;;;;19.82;46.62;101569.88;5105259;28;20028;-80
2022/09/05 05:42:26;;;;;;;5.38;2.55;;;;;;;20.02;46.41;101561.00;5110885;28;20051;-79
2022/09/05 05:45:21;;;;;;;5.03;2.40;;;;;;;20.37;44.96;101556.31;5101084;28;20039;-80
2022/09/05 05:48:15;;;;;;;4.63;2.17;;;;;;;20.71;43.92;101554.56;5109552;28;20081;-80
2022/09/05 05:50:52;;;;;;;;;;;;;;;21.04;42.94;101567.44;5101979;28;20123;-79
2022/09/05 05:53:55;;;;;;;3.47;2.42;;;;;;;21.30;42.25;101574.81;5109135;28;19920;-82
2022/09/05 05:57:11;;;;;;;3.95;2.80;;;;;;;21.57;42.23;101572.97;5106902;28;20043;-80
2022/09/05 06:00:08;;;;;;;2.97;1.90;;;;;;;21.94;40.60;101587.03;5094645;28;20082;-80
2022/09/05 06:02:59;;;;;;;5.60;2.10;;;;;;;22.36;40.00;101590.31;5107992;28;20028;-79
2022/09/05 06:06:06;;;;;;;4.38;2.30;;;;;;;22.44;39.26;101583.72;5105397;28;20056;-79
2022/09/05 06:08:57;;;;;;;5.85;2.03;;;;;;;22.77;38.48;101589.88;5122532;28;21467;-82
2022/09/05 06:12:16;;;;;;;3.20;2.30;;;;;;;23.24;38.17;101608.81;5108050;28;20032;-80
2022/09/05 06:15:28;;;;;;;3.17;2.20;;;;;;;23.23;37.39;101598.91;5015671;28;20478;-81
2022/09/05 06:18:17;;;;;;;4.10;2.15;;;;;;;23.74;36.84;101597.88;5018128;28;20048;-82
2022/09/05 06:21:10;;;;;;;4.60;1.95;;;;;;;24.38;35.36;101611.34;5007573;28;20136;-78
2022/09/05 06:23:50;;;;;;;4.18;1.95;;;;;;;24.77;34.04;101611.91;5093677;28;20044;-81
2022/09/05 06:26:23;;;;;;;4.40;2.53;;;;;;;24.71;34.03;101607.38;5107534;28;20027;-81
2022/09/05 06:29:14;;;;;;;3.75;2.00;;;;;;;24.56;34.54;101611.38;5112352;28;20045;-83
2022/09/05 06:31:45;;;;;;;6.72;2.20;;;;;;;24.30;34.74;101589.66;5109651;28;20035;-81
2022/09/05 06:34:44;;;;;;;5.70;2.17;;;;;;;24.30;35.33;101617.13;5108451;28;20031;-82
2022/09/05 06:37:16;;;;;;;4.60;2.40;;;;;;;24.09;35.98;101619.28;5109535;28;20023;-81
2022/09/05 06:40:22;;;;;;;5.45;2.08;;;;;;;24.04;35.83;101624.59;5112755;28;20027;-78
2022/09/05 06:43:13;;;;;;;4.88;2.50;;;;;;;23.92;37.14;101640.16;5100448;28;20024;-79
2022/09/05 06:46:29;;;;;;;4.32;2.10;;;;;;;23.82;36.99;101634.34;5107714;28;20032;-79
2022/09/05 06:49:17;;;;;;;4.15;2.40;;;;;;;23.38;38.01;101624.09;5066194;28;20043;-78
2022/09/05 06:52:10;;;;;;;5.47;2.40;;;;;;;23.06;38.57;101601.34;5112030;28;20049;-89
2022/09/05 06:55:17;;;;;;;4.40;2.33;;;;;;;23.38;38.42;101632.34;5107486;28;20423;-82
2022/09/05 06:58:16;;;;;;;6.35;2.58;;;;;;;23.40;38.52;101640.34;5088072;27;20066;-81
2022/09/05 07:00:48;;;;;;;4.15;2.10;;;;;;;23.30;38.78;101651.81;5108962;27;20031;-81
2022/09/05 07:03:19;;;;;;;3.42;2.20;;;;;;;23.37;38.69;101657.28;5112630;27;20050;-82
2022/09/05 07:05:54;;;;;;;4.28;2.15;;;;;;;23.21;39.17;101668.78;5117806;27;20023;-82
2022/09/05 07:09:14;;;;;;;4.22;2.50;;;;;;;23.05;39.57;101664.63;5117525;27;20042;-82
2022/09/05 07:11:49;;;;;;;3.42;2.10;;;;;;;23.05;39.50;101675.63;5016622;28;20037;-81
2022/09/05 07:14:27;;;;;;;3.42;2.22;;;;;;;22.89;39.75;101672.28;5088167;27;20107;-83
2022/09/05 07:17:01;;;;;;;4.85;2.13;;;;;;;23.07;39.78;101678.97;5101442;27;20452;-82
2022/09/05 07:19:43;;;;;;;5.38;2.38;;;;;;;23.07;39.64;101681.72;5132013;27;20118;-84
2022/09/05 07:22:31;;;;;;;8.45;2.60;;;;;;;22.94;39.74;101677.09;5106160;27;20031;-88
2022/09/05 07:24:58;;;;;;;10.15;2.45;;;;;;;22.92;39.98;101671.84;5127683;27;20072;-84
2022/09/05 07:28:02;;;;;;;3.70;2.25;;;;;;;23.04;40.23;101679.41;5114014;27;20116;-82
2022/09/05 07:30:28;;;;;;;3.28;2.08;;;;;;;23.20;39.59;101684.38;5100514;27;20046;-85
2022/09/05 07:32:54;;;;;;;2.80;1.98;;;;;;;23.28;39.71;101686.03;5093133;28;20122;-84
2022/09/05 07:35:32;;;;;;;5.25;2.00;;;;;;;22.96;40.20;101667.59;5112984;27;20550;-81
2022/09/05 07:38:17;;;;;;;5.90;2.08;;;;;;;22.92;40.64;101677.34;5114179;27;20091;-84
2022/09/05 07:41:03;;;;;;;;;;;;;;;23.03;40.40;101674.97;5114282;27;20027;-83
2022/09/05 07:43:38;;;;;;;6.97;2.03;;;;;;;23.09;39.91;101666.72;5125803;27;19968;-86
2022/09/05 07:46:10;;;;;;;5.50;2.58;;;;;;;23.31;40.16;101675.44;5095043;27;20042;-87
2022/09/05 07:48:39;;;;;;;3.63;2.00;;;;;;;23.18;40.06;101653.59;5127098;27;20030;-84
2022/09/05 07:51:07;;;;;;;5.00;2.10;;;;;;;23.22;40.55;101679.50;5109845;27;20070;-83
2022/09/05 07:53:40;;;;;;;4.05;2.03;;;;;;;23.26;40.10;101677.19;5108320;27;20061;-85
2022/09/05 07:56:05;;;;;;;4.95;2.03;;;;;;;23.11;40.71;101664.59;5109055;27;20034;-83
2022/09/05 07:58:40;;;;;;;3.53;2.00;;;;;;;23.06;40.75;101649.84;5089117;28;20039;-86
2022/09/05 08:01:05;;;;;;;9.15;2.00;;;;;;;23.21;41.07;101666.03;5094751;27;20035;-82
2022/09/05 08:03:31;;;;;;;6.32;1.92;;;;;;;23.30;40.91;101673.78;5111414;27;20099;-84
2022/09/05 08:05:59;;;;;;;5.45;2.10;;;;;;;23.45;40.07;101669.88;5110531;27;20039;-86
2022/09/05 08:08:51;;;;;;;5.03;2.20;;;;;;;23.46;40.74;101666.06;5103549;27;20495;-84
2022/09/05 08:11:16;;;;;;;3.67;2.20;;;;;;;23.56;40.03;101661.75;5104029;27;20043;-84
2022/09/05 08:13:45;;;;;;;4.03;1.90;;;;;;;23.58;40.29;101659.63;5088458;27;20034;-89
2022/09/05 08:16:15;;;;;;;3.55;2.25;;;;;;;23.49;40.15;101647.25;5102243;27;20035;-85
2022/09/05 08:18:48;;;;;;;3.35;1.88;;;;;;;23.83;39.03;101663.47;5087748;27;20487;-87
2022/09/05 08:21:23;;;;;;;4.47;1.90;;;;;;;24.05;39.82;101670.25;5118641;27;20119;-84
2022/09/05 08:23:54;;;;;;;4.27;1.80;;;;;;;24.04;40.14;101663.06;5121097;27;20031;-88
2022/09/05 08:26:36;;;;;;;3.28;1.73;;;;;;;23.62;40.24;101671.00;5122345;27;20023;-85
2022/09/05 08:29:29;;;;;;;3.80;2.00;;;;;;;23.75;41.24;101661.84;5103689;27;20077;-88
2022/09/05 08:32:28;;;;;;;6.72;2.28;;;;;;;25.59;37.78;101663.63;5110977;27;20038;-83
2022/09/05 08:35:10;;;;;;;5.50;1.90;;;;;;;27.21;32.60;101648.22;5100005;27;20046;-82
2022/09/05 08:37:35;;;;;;;3.95;1.77;;;;;;;28.09;31.91;101653.25;5106236;27;20049;-82
2022/09/05 08:40:07;;;;;;;2.80;1.90;;;;;;;28.94;30.72;101653.78;5096916;28;20422;-83
2022/09/05 08:42:49;;;;;;;3.60;1.98;;;;;;;28.41;31.80;101648.72;5084315;28;20038;-85
2022/09/05 08:45:46;;;;;;;2.67;1.52;;;;;;;28.21;31.82;101656.75;5109354;27;20035;-85
2022/09/05 08:48:15;;;;;;;3.92;1.70;;;;;;;27.49;32.89;101655.63;5119441;27;20854;-81
2022/09/05 08:50:53;;;;;;;3.47;1.90;;;;;;;27.39;34.05;101655.44;5118217;27;20034;-83
2022/09/05 08:53:46;;;;;;;6.75;1.83;;;;;;;26.97;33.86;101658.47;5130788;27;20031;-83
2022/09/05 08:56:17;;;;;;;7.07;1.90;;;;;;;26.14;35.23;101649.56;5102839;27;20042;-82
2022/09/05 08:58:54;;;;;;;4.82;1.90;;;;;;;26.01;35.78;101664.44;5113527;27;20494;-82
2022/09/05 09:01:44;;;;;;;2.47;1.60;;;;;;;25.91;36.21;101666.94;5117571;27;20070;-81
2022/09/05 09:04:24;;;;;;;6.10;2.15;;;;;;;27.20;34.06;101654.81;5116726;27;20105;-81
2022/09/05 09:07:02;;;;;;;2.95;1.90;;;;;;;29.26;30.00;101651.13;5116398;27;20454;-84
2022/09/05 09:09:56;;;;;;;3.88;1.80;;;;;;;30.38;27.60;101644.78;5118001;27;20103;-81
2022/09/05 09:12:40;;;;;;;2.88;1.95;;;;;;;32.71;25.68;101644.25;5102498;27;20501;-84
2022/09/05 09:15:35;;;;;;;7.38;1.88;;;;;;;33.15;24.97;101634.25;5118323;27;20046;-86
2022/09/05 09:18:18;;;;;;;8.65;2.30;;;;;;;33.13;24.56;101642.06;5072303;28;20069;-88
2022/09/05 09:20:47;;;;;;;3.45;1.80;;;;;;;32.10;25.20;101653.66;5104354;27;20027;-85
2022/09/05 09:23:45;;;;;;;6.97;1.90;;;;;;;31.00;26.27;101654.16;5128000;27;20027;-85
2022/09/05 09:26:22;;;;;;;4.00;1.80;;;;;;;30.53;27.28;101642.03;5124432;27;20122;-81
2022/09/05 09:28:48;;;;;;;3.95;1.90;;;;;;;29.66;28.52;101644.25;5093406;27;20064;-84
2022/09/05 09:31:35;;;;;;;3.55;1.63;;;;;;;28.38;30.15;101640.13;5106667;27;20035;-88
2022/09/05 09:34:25;;;;;;;3.95;1.70;;;;;;;27.58;31.51;101640.31;5108779;27;20150;-81
2022/09/05 09:36:57;;;;;;;2.40;1.88;;;;;;;25.81;35.16;101628.94;5099120;27;20422;-81
2022/09/05 09:39:31;;;;;;;3.40;2.10;;;;;;;25.72;36.06;101635.88;5125109;27;20100;-85
2022/09/05 09:42:33;;;;;;;6.20;2.05;;;;;;;25.83;35.18;101643.31;5089254;28;20498;-84
2022/09/05 09:45:30;;;;;;;3.65;2.00;;;;;;;29.90;28.86;101630.03;5119660;28;20452;-82
2022/09/05 09:48:24;;;;;;;3.63;1.80;;;;;;;29.99;28.55;101637.59;5105155;27;20076;-81
2022/09/05 09:51:17;;;;;;;4.93;1.90;;;;;;;29.94;28.19;101645.88;5095812;27;20063;-82
2022/09/05 09:54:08;;;;;;;2.95;1.70;;;;;;;28.80;29.57;101639.56;5116284;27;20035;-80
2022/09/05 09:56:58;;;;;;;3.03;1.67;;;;;;;28.16;30.48;101638.16;5118563;27;20022;-80
2022/09/05 09:59:46;;;;;;;6.90;3.05;;;;;;;28.01;31.74;101634.34;5131523;27;20039;-81
2022/09/05 10:02:24;;;;;;;3.45;1.90;;;;;;;27.43;32.57;101634.50;5124164;27;20493;-79
2022/09/05 10:05:25;;;;;;;4.47;1.90;;;;;;;26.43;35.05;101630.34;5086069;28;20032;-82
2022/09/05 10:07:57;;;;;;;7.35;3.08;;;;;;;26.19;35.98;101635.91;5098535;28;20039;-82
2022/09/05 10:10:28;;;;;;;3.85;2.10;;;;;;;25.84;37.44;101650.50;5111718;28;20065;-82
2022/09/05 10:13:18;;;;;;;3.42;1.70;;;;;;;25.37;39.89;101644.94;5126871;27;20118;-85
2022/09/05 10:16:05;;;;;;;8.05;1.60;;;;;;;24.26;43.24;101646.16;5110539;27;20041;-80
2022/09/05 10:18:37;;;;;;;9.10;3.08;;;;;;;24.21;43.57;101636.69;5131238;27;20031;-84
2022/09/05 10:21:32;;;;;;;3.97;2.10;;;;;;;26.08;40.17;101639.50;5117933;27;20046;-82
2022/09/05 10:24:16;;;;;;;2.67;1.65;;;;;;;28.33;35.64;101637.25;5129679;27;20031;-82
2022/09/05 10:27:16;;;;;;;3.38;1.70;;;;;;;27.41;36.58;101631.16;5130818;27;20072;-82
2022/09/05 10:29:45;;;;;;;4.45;1.33;;;;;;;26.02;39.74;101634.97;5120539;27;20416;-82
2022/09/05 10:32:41;;;;;;;3.58;1.63;;;;;;;25.37;41.19;101639.44;5121697;27;20700;-81
2022/09/05 10:35:29;;;;;;;6.38;1.70;;;;;;;24.62;42.41;101640.66;5124480;27;20042;-82
2022/09/05 10:38:16;;;;;;;5.32;1.60;;;;;;;25.23;41.02;101638.78;5112034;27;20047;-81
2022/09/05 10:40:45;;;;;;;3.50;1.52;;;;;;;26.69;37.90;101627.06;5113406;28;20105;-81
2022/09/05 10:43:27;;;;;;;3.92;1.38;;;;;;;26.50;38.03;101634.66;5125156;27;20044;-81
2022/09/05 10:46:01;;;;;;;2.88;1.60;;;;;;;26.12;39.07;101629.69;5133864;27;20042;-84
2022/09/05 10:48:48;;;;;;;3.78;1.60;;;;;;;25.62;39.74;101635.66;5115959;27;20383;-82
2022/09/05 10:51:15;;;;;;;5.82;1.70;;;;;;;24.88;41.37;101635.88;5116709;27;20050;-83
2022/09/05 10:53:46;;;;;;;4.20;1.75;;;;;;;24.58;42.46;101639.47;5110339;27;20154;-82
2022/09/05 10:56:17;;;;;;;7.07;1.85;;;;;;;24.39;42.68;101637.75;5120731;27;20032;-82
2022/09/05 10:59:03;;;;;;;4.68;1.90;;;;;;;24.80;42.00;101644.47;5099318;27;20517;-81
2022/09/05 11:01:48;;;;;;;4.00;1.50;;;;;;;24.52;42.22;101631.31;5101880;27;20030;-81
2022/09/05 11:04:42;;;;;;;8.32;1.70;;;;;;;24.23;42.71;101645.53;5102749;28;20407;-81
2022/09/05 11:07:15;;;;;;;2.93;1.60;;;;;;;23.90;42.94;101615.66;5123425;27;20131;-82
2022/09/05 11:09:58;;;;;;;4.93;1.80;;;;;;;24.04;43.56;101632.84;5089514;27;20036;-81
2022/09/05 11:12:34;;;;;;;3.88;1.90;;;;;;;23.87;43.87;101640.00;5117750;27;20023;-81
2022/09/05 11:15:23;;;;;;;5.00;1.67;;;;;;;23.56;44.23;101633.47;5095217;28;20497;-81
2022/09/05 11:17:53;;;;;;;4.25;2.00;;;;;;;23.62;44.21;101640.81;5113000;27;20126;-81
2022/09/05 11:20:24;;;;;;;5.40;1.75;;;;;;;23.57;44.27;101643.38;5125178;27;20028;-80
2022/09/05 11:22:49;;;;;;;5.78;2.10;;;;;;;23.53;44.59;101628.41;5131611;27;20096;-81
2022/09/05 11:25:26;;;;;;;3.70;1.63;;;;;;;23.47;45.25;101641.13;5092646;28;20118;-80
2022/09/05 11:27:53;;;;;;;7.03;1.80;;;;;;;24.49;43.58;101618.84;5095386;27;20122;-81
2022/09/05 11:30:22;;;;;;;5.20;1.70;;;;;;;24.52;42.18;101612.06;5117093;27;20027;-82
2022/09/05 11:33:10;;;;;;;4.97;1.70;;;;;;;24.90;41.42;101633.75;5108004;28;20495;-81
2022/09/05 11:35:57;;;;;;;2.78;1.80;;;;;;;24.96;41.45;101618.22;5104320;27;20406;-80
2022/09/05 11:39:08;;;;;;;4.07;1.90;;;;;;;25.23;40.88;101635.19;5096921;27;20146;-82
2022/09/05 11:41:43;;;;;;;4.32;1.42;;;;;;;24.66;40.77;101605.31;5014038;28;20040;-82
2022/09/05 11:44:17;;;;;;;3.50;1.38;;;;;;;24.20;41.61;101637.75;5000887;28;20052;-81
2022/09/05 11:47:01;;;;;;;3.33;1.50;;;;;;;23.93;41.99;101639.09;5082168;27;20042;-82
2022/09/05 11:49:51;;;;;;;4.47;1.70;;;;;;;23.58;42.99;101639.59;5126914;27;20035;-82
2022/09/05 11:52:41;;;;;;;5.60;1.90;;;;;;;23.59;43.40;101644.00;5131071;27;20035;-83
2022/09/05 11:55:37;;;;;;;5.20;1.63;;;;;;;23.50;43.73;101637.94;5127016;27;20118;-82
2022/09/05 11:58:21;;;;;;;6.30;1.70;;;;;;;23.37;43.59;101641.63;5130183;27;20035;-80
2022/09/05 12:00:55;;;;;;;4.47;1.70;;;;;;;23.11;44.48;101636.34;5127037;27;20030;-81
2022/09/05 12:03:40;;;;;;;5.60;1.88;;;;;;;23.03;44.67;101626.47;5113269;27;20033;-82
2022/09/05 12:06:28;;;;;;;3.42;1.75;;;;;;;22.89;44.97;101628.41;5125624;27;20035;-81
2022/09/05 12:09:24;;;;;;;2.85;1.70;;;;;;;22.59;46.15;101605.38;5107758;27;20036;-81
2022/09/05 12:12:26;;;;;;;5.35;1.70;;;;;;;22.60;45.67;101624.34;5113072;27;20404;-82
2022/09/05 12:15:23;;;;;;;4.00;2.00;;;;;;;22.51;45.79;101617.44;5123479;27;20042;-90
2022/09/05 12:18:14;;;;;;;6.10;2.00;;;;;;;22.43;45.87;101615.78;5103663;28;20131;-84
2022/09/05 12:20:49;;;;;;;5.28;2.08;;;;;;;22.48;46.21;101626.91;5092229;27;20111;-85
2022/09/05 12:23:59;;;;;;;6.53;2.00;;;;;;;22.31;46.17;101625.69;5122309;27;20054;-86
2022/09/05 12:26:42;;;;;;;5.95;1.80;;;;;;;22.39;45.81;101633.69;5126684;27;20032;-86
2022/09/05 12:29:23;;;;;;;5.03;1.73;;;;;;;22.36;45.88;101616.84;5096746;28;20454;-86
2022/09/05 12:31:53;;;;;;;5.35;1.95;;;;;;;22.40;46.35;101616.19;5085202;27;20035;-87
2022/09/05 12:34:48;;;;;;;5.90;2.03;;;;;;;22.29;46.01;101623.19;5080113;27;20026;-85
2022/09/05 12:37:14;;;;;;;7.10;2.10;;;;;;;22.39;45.84;101613.69;5132504;27;20030;-85
2022/09/05 12:39:44;;;;;;;6.13;2.08;;;;;;;22.43;45.43;101602.06;5096750;27;20410;-87
2022/09/05 12:42:20;;;;;;;3.40;1.95;;;;;;;22.47;45.50;101595.09;5094922;27;20058;-86
2022/09/05 12:44:50;;;;;;;5.72;2.10;;;;;;;22.56;45.58;101606.66;5114940;27;20042;-86
2022/09/05 12:47:20;;;;;;;7.90;2.10;;;;;;;22.53;44.96;101586.00;5112024;27;20439;-86